sensor_id;sensor_type;location;lat;lon;timestamp;pressure;altitude;pressure_sealevel;temperature;humidity
59877;BME280;45749;51.140;17.184;2023-09-07T00:00:09;100986.13;;;17.86;73.34
59877;BME280;45749;51.140;17.184;2023-09-07T00:02:36;100985.31;;;17.86;73.62
59877;BME280;45749;51.140;17.184;2023-09-07T00:05:01;100977.44;;;17.74;73.53
59877;BME280;45749;51.140;17.184;2023-09-07T00:07:26;100996.53;;;17.79;73.59
59877;BME280;45749;51.140;17.184;2023-09-07T00:09:51;100986.41;;;17.73;73.85
59877;BME280;45749;51.140;17.184;2023-09-07T00:12:17;100988.50;;;17.70;73.85
59877;BME280;45749;51.140;17.184;2023-09-07T00:14:42;100993.72;;;17.71;73.76
59877;BME280;45749;51.140;17.184;2023-09-07T00:17:07;100996.66;;;17.68;73.79
59877;BME280;45749;51.140;17.184;2023-09-07T00:19:33;100992.06;;;17.61;73.54
59877;BME280;45749;51.140;17.184;2023-09-07T00:22:02;100993.16;;;17.58;73.64
59877;BME280;45749;51.140;17.184;2023-09-07T00:24:27;100984.72;;;17.53;73.80
59877;BME280;45749;51.140;17.184;2023-09-07T00:26:53;100993.44;;;17.55;73.61
59877;BME280;45749;51.140;17.184;2023-09-07T00:29:18;100987.66;;;17.50;73.77
59877;BME280;45749;51.140;17.184;2023-09-07T00:31:43;100982.06;;;17.43;73.91
59877;BME280;45749;51.140;17.184;2023-09-07T00:34:09;100976.31;;;17.28;74.08
59877;BME280;45749;51.140;17.184;2023-09-07T00:36:34;100994.84;;;17.40;74.13
59877;BME280;45749;51.140;17.184;2023-09-07T00:39:00;100978.25;;;17.36;73.77
59877;BME280;45749;51.140;17.184;2023-09-07T00:41:25;100976.03;;;17.31;74.10
59877;BME280;45749;51.140;17.184;2023-09-07T00:43:51;100994.44;;;17.34;74.01
59877;BME280;45749;51.140;17.184;2023-09-07T00:46:17;100986.69;;;17.31;73.72
59877;BME280;45749;51.140;17.184;2023-09-07T00:48:42;100985.16;;;17.29;73.98
59877;BME280;45749;51.140;17.184;2023-09-07T00:51:08;100986.97;;;17.28;73.70
59877;BME280;45749;51.140;17.184;2023-09-07T00:53:33;100979.94;;;17.27;73.62
59877;BME280;45749;51.140;17.184;2023-09-07T00:55:59;100977.69;;;17.23;73.66
59877;BME280;45749;51.140;17.184;2023-09-07T00:58:24;100979.78;;;17.19;73.94
59877;BME280;45749;51.140;17.184;2023-09-07T01:00:50;100987.34;;;17.14;74.15
59877;BME280;45749;51.140;17.184;2023-09-07T01:03:15;100984.13;;;17.10;74.22
59877;BME280;45749;51.140;17.184;2023-09-07T01:05:47;100982.72;;;17.06;74.16
59877;BME280;45749;51.140;17.184;2023-09-07T01:08:40;100982.16;;;17.03;74.46
59877;BME280;45749;51.140;17.184;2023-09-07T01:11:14;100980.59;;;17.00;74.09
59877;BME280;45749;51.140;17.184;2023-09-07T01:13:40;100972.44;;;16.92;74.10
59877;BME280;45749;51.140;17.184;2023-09-07T01:16:06;100975.25;;;16.91;74.54
59877;BME280;45749;51.140;17.184;2023-09-07T01:18:32;100979.16;;;16.86;74.34
59877;BME280;45749;51.140;17.184;2023-09-07T01:21:00;100974.94;;;16.84;74.49
59877;BME280;45749;51.140;17.184;2023-09-07T01:23:28;100974.66;;;16.77;74.65
59877;BME280;45749;51.140;17.184;2023-09-07T01:25:54;100980.97;;;16.76;74.46
59877;BME280;45749;51.140;17.184;2023-09-07T01:28:20;100978.28;;;16.76;74.76
59877;BME280;45749;51.140;17.184;2023-09-07T01:30:46;100973.63;;;16.69;74.37
59877;BME280;45749;51.140;17.184;2023-09-07T01:33:12;100985.97;;;16.70;74.67
59877;BME280;45749;51.140;17.184;2023-09-07T01:35:38;100980.91;;;16.67;74.55
59877;BME280;45749;51.140;17.184;2023-09-07T01:38:03;100975.56;;;16.67;74.73
59877;BME280;45749;51.140;17.184;2023-09-07T01:40:29;100983.97;;;16.62;74.62
59877;BME280;45749;51.140;17.184;2023-09-07T01:42:54;100980.59;;;16.60;74.89
59877;BME280;45749;51.140;17.184;2023-09-07T01:45:19;100973.28;;;16.52;74.86
59877;BME280;45749;51.140;17.184;2023-09-07T01:47:45;100981.13;;;16.54;75.00
59877;BME280;45749;51.140;17.184;2023-09-07T01:50:10;100984.78;;;16.53;74.89
59877;BME280;45749;51.140;17.184;2023-09-07T01:52:36;100985.03;;;16.50;74.85
59877;BME280;45749;51.140;17.184;2023-09-07T01:55:01;100989.66;;;16.48;75.12
59877;BME280;45749;51.140;17.184;2023-09-07T01:57:26;100972.78;;;16.37;74.84
59877;BME280;45749;51.140;17.184;2023-09-07T01:59:52;100981.59;;;16.38;75.25
59877;BME280;45749;51.140;17.184;2023-09-07T02:02:17;100984.69;;;16.33;75.06
59877;BME280;45749;51.140;17.184;2023-09-07T02:04:42;100992.53;;;16.35;75.09
59877;BME280;45749;51.140;17.184;2023-09-07T02:07:11;100984.94;;;16.30;75.37
59877;BME280;45749;51.140;17.184;2023-09-07T02:09:36;100982.53;;;16.27;75.65
59877;BME280;45749;51.140;17.184;2023-09-07T02:12:02;100990.41;;;16.29;75.53
59877;BME280;45749;51.140;17.184;2023-09-07T02:14:29;100980.28;;;16.23;75.40
59877;BME280;45749;51.140;17.184;2023-09-07T02:16:54;100988.97;;;16.25;75.53
59877;BME280;45749;51.140;17.184;2023-09-07T02:19:19;100985.72;;;16.21;75.23
59877;BME280;45749;51.140;17.184;2023-09-07T02:21:47;100974.06;;;16.12;75.28
59877;BME280;45749;51.140;17.184;2023-09-07T02:24:13;100982.63;;;16.16;75.64
59877;BME280;45749;51.140;17.184;2023-09-07T02:26:38;100977.09;;;16.08;75.12
59877;BME280;45749;51.140;17.184;2023-09-07T02:29:08;100987.63;;;16.09;75.40
59877;BME280;45749;51.140;17.184;2023-09-07T02:31:34;100985.25;;;16.06;75.61
59877;BME280;45749;51.140;17.184;2023-09-07T02:33:59;100989.72;;;16.06;75.61
59877;BME280;45749;51.140;17.184;2023-09-07T02:36:24;100990.81;;;16.03;75.53
59877;BME280;45749;51.140;17.184;2023-09-07T02:38:50;100986.84;;;15.98;75.70
59877;BME280;45749;51.140;17.184;2023-09-07T02:41:15;100977.31;;;15.95;75.95
59877;BME280;45749;51.140;17.184;2023-09-07T02:43:40;100983.34;;;15.97;75.97
59877;BME280;45749;51.140;17.184;2023-09-07T02:46:05;100984.19;;;15.98;75.85
59877;BME280;45749;51.140;17.184;2023-09-07T02:48:31;100980.09;;;15.93;75.90
59877;BME280;45749;51.140;17.184;2023-09-07T02:50:56;100983.47;;;15.95;75.65
59877;BME280;45749;51.140;17.184;2023-09-07T02:53:23;100982.25;;;16.00;75.88
59877;BME280;45749;51.140;17.184;2023-09-07T02:55:49;100992.91;;;16.00;75.78
59877;BME280;45749;51.140;17.184;2023-09-07T02:58:14;100987.59;;;16.00;76.07
59877;BME280;45749;51.140;17.184;2023-09-07T03:00:43;100991.84;;;15.91;75.77
59877;BME280;45749;51.140;17.184;2023-09-07T03:03:12;100997.91;;;15.93;76.10
59877;BME280;45749;51.140;17.184;2023-09-07T03:05:39;100991.28;;;15.87;76.08
59877;BME280;45749;51.140;17.184;2023-09-07T03:08:05;100985.22;;;15.85;76.09
59877;BME280;45749;51.140;17.184;2023-09-07T03:10:31;100985.47;;;15.82;76.03
59877;BME280;45749;51.140;17.184;2023-09-07T03:12:57;100988.88;;;15.84;76.10
59877;BME280;45749;51.140;17.184;2023-09-07T03:15:22;100995.44;;;15.80;76.16
59877;BME280;45749;51.140;17.184;2023-09-07T03:17:47;100985.56;;;15.71;76.41
59877;BME280;45749;51.140;17.184;2023-09-07T03:20:12;100978.31;;;15.62;76.34
59877;BME280;45749;51.140;17.184;2023-09-07T03:22:40;100997.03;;;15.71;76.36
59877;BME280;45749;51.140;17.184;2023-09-07T03:25:08;100995.34;;;15.70;76.71
59877;BME280;45749;51.140;17.184;2023-09-07T03:27:33;100982.63;;;15.63;76.46
59877;BME280;45749;51.140;17.184;2023-09-07T03:29:58;100993.16;;;15.64;76.63
59877;BME280;45749;51.140;17.184;2023-09-07T03:32:24;100988.09;;;15.61;76.83
59877;BME280;45749;51.140;17.184;2023-09-07T03:34:52;100986.28;;;15.62;76.88
59877;BME280;45749;51.140;17.184;2023-09-07T03:37:17;100999.47;;;15.63;76.72
59877;BME280;45749;51.140;17.184;2023-09-07T03:39:42;101000.56;;;15.61;76.86
59877;BME280;45749;51.140;17.184;2023-09-07T03:42:07;100992.25;;;15.54;76.76
59877;BME280;45749;51.140;17.184;2023-09-07T03:44:33;100986.09;;;15.54;76.52
59877;BME280;45749;51.140;17.184;2023-09-07T03:46:58;100996.47;;;15.57;76.69
59877;BME280;45749;51.140;17.184;2023-09-07T03:49:23;100990.69;;;15.52;76.75
59877;BME280;45749;51.140;17.184;2023-09-07T03:51:48;100990.69;;;15.52;76.78
59877;BME280;45749;51.140;17.184;2023-09-07T03:54:14;100989.94;;;15.49;76.88
59877;BME280;45749;51.140;17.184;2023-09-07T03:56:39;100988.41;;;15.47;76.80
59877;BME280;45749;51.140;17.184;2023-09-07T03:59:04;100986.84;;;15.44;77.16
59877;BME280;45749;51.140;17.184;2023-09-07T04:01:30;100993.16;;;15.43;77.38
59877;BME280;45749;51.140;17.184;2023-09-07T04:03:55;100994.81;;;15.44;77.19
59877;BME280;45749;51.140;17.184;2023-09-07T04:06:20;100977.22;;;15.32;77.28
59877;BME280;45749;51.140;17.184;2023-09-07T04:08:45;100990.41;;;15.34;77.52
59877;BME280;45749;51.140;17.184;2023-09-07T04:11:11;100987.34;;;15.38;77.69
59877;BME280;45749;51.140;17.184;2023-09-07T04:13:36;101008.22;;;15.43;77.25
59877;BME280;45749;51.140;17.184;2023-09-07T04:16:01;101000.41;;;15.41;77.27
59877;BME280;45749;51.140;17.184;2023-09-07T04:18:27;100995.97;;;15.31;77.14
59877;BME280;45749;51.140;17.184;2023-09-07T04:20:52;100999.91;;;15.36;77.57
59877;BME280;45749;51.140;17.184;2023-09-07T04:23:18;101008.03;;;15.35;77.36
59877;BME280;45749;51.140;17.184;2023-09-07T04:25:43;101007.19;;;15.34;77.67
59877;BME280;45749;51.140;17.184;2023-09-07T04:28:08;101009.63;;;15.26;77.82
59877;BME280;45749;51.140;17.184;2023-09-07T04:30:38;101017.34;;;15.29;77.78
59877;BME280;45749;51.140;17.184;2023-09-07T04:33:03;101007.19;;;15.23;77.74
59877;BME280;45749;51.140;17.184;2023-09-07T04:35:29;101004.09;;;15.18;77.72
59877;BME280;45749;51.140;17.184;2023-09-07T04:37:57;101021.72;;;15.30;77.47
59877;BME280;45749;51.140;17.184;2023-09-07T04:40:24;100999.13;;;15.24;77.35
59877;BME280;45749;51.140;17.184;2023-09-07T04:42:49;101022.41;;;15.32;77.60
59877;BME280;45749;51.140;17.184;2023-09-07T04:45:15;101021.44;;;15.33;77.74
59877;BME280;45749;51.140;17.184;2023-09-07T04:47:40;101027.63;;;15.34;77.64
59877;BME280;45749;51.140;17.184;2023-09-07T04:50:06;101027.38;;;15.37;77.41
59877;BME280;45749;51.140;17.184;2023-09-07T04:52:32;101027.47;;;15.35;77.70
59877;BME280;45749;51.140;17.184;2023-09-07T04:54:57;101020.22;;;15.37;77.59
59877;BME280;45749;51.140;17.184;2023-09-07T04:57:22;101025.91;;;15.33;77.69
59877;BME280;45749;51.140;17.184;2023-09-07T04:59:47;101027.09;;;15.40;77.80
59877;BME280;45749;51.140;17.184;2023-09-07T05:02:13;101031.31;;;15.42;77.80
59877;BME280;45749;51.140;17.184;2023-09-07T05:04:38;101034.22;;;15.39;77.93
59877;BME280;45749;51.140;17.184;2023-09-07T05:07:04;101027.81;;;15.42;78.05
59877;BME280;45749;51.140;17.184;2023-09-07T05:09:29;101032.16;;;15.43;78.00
59877;BME280;45749;51.140;17.184;2023-09-07T05:11:55;101016.59;;;15.38;78.34
59877;BME280;45749;51.140;17.184;2023-09-07T05:14:21;101029.72;;;15.51;78.16
59877;BME280;45749;51.140;17.184;2023-09-07T05:16:47;101027.91;;;15.52;78.32
59877;BME280;45749;51.140;17.184;2023-09-07T05:19:12;101035.50;;;15.56;78.24
59877;BME280;45749;51.140;17.184;2023-09-07T05:21:37;101036.38;;;15.57;78.41
59877;BME280;45749;51.140;17.184;2023-09-07T05:24:03;101034.56;;;15.57;78.53
59877;BME280;45749;51.140;17.184;2023-09-07T05:26:29;101043.13;;;15.61;78.22
59877;BME280;45749;51.140;17.184;2023-09-07T05:28:54;101039.75;;;15.70;78.69
59877;BME280;45749;51.140;17.184;2023-09-07T05:31:19;101028.72;;;15.63;78.28
59877;BME280;45749;51.140;17.184;2023-09-07T05:33:45;101050.47;;;15.80;78.27
59877;BME280;45749;51.140;17.184;2023-09-07T05:36:10;101057.22;;;15.84;78.25
59877;BME280;45749;51.140;17.184;2023-09-07T05:38:35;101043.06;;;15.83;77.95
59877;BME280;45749;51.140;17.184;2023-09-07T05:41:01;101034.50;;;15.80;78.54
59877;BME280;45749;51.140;17.184;2023-09-07T05:43:26;101052.66;;;15.95;78.38
59877;BME280;45749;51.140;17.184;2023-09-07T05:45:51;101054.13;;;16.00;78.36
59877;BME280;45749;51.140;17.184;2023-09-07T05:48:16;101053.13;;;16.01;78.47
59877;BME280;45749;51.140;17.184;2023-09-07T05:50:42;101045.56;;;15.96;78.82
59877;BME280;45749;51.140;17.184;2023-09-07T05:53:07;101051.06;;;16.04;78.89
59877;BME280;45749;51.140;17.184;2023-09-07T05:55:33;101045.00;;;16.02;78.90
59877;BME280;45749;51.140;17.184;2023-09-07T05:57:59;101047.81;;;16.01;79.02
59877;BME280;45749;51.140;17.184;2023-09-07T06:00:24;101067.50;;;16.09;79.21
59877;BME280;45749;51.140;17.184;2023-09-07T06:02:50;101052.88;;;16.04;79.59
59877;BME280;45749;51.140;17.184;2023-09-07T06:05:16;101057.69;;;16.10;79.24
59877;BME280;45749;51.140;17.184;2023-09-07T06:07:41;101063.72;;;16.12;80.10
59877;BME280;45749;51.140;17.184;2023-09-07T06:10:07;101060.81;;;16.15;79.67
59877;BME280;45749;51.140;17.184;2023-09-07T06:12:33;101071.66;;;16.23;80.22
59877;BME280;45749;51.140;17.184;2023-09-07T06:14:59;101058.66;;;16.30;80.14
59877;BME280;45749;51.140;17.184;2023-09-07T06:17:25;101062.03;;;16.32;79.98
59877;BME280;45749;51.140;17.184;2023-09-07T06:19:51;101061.66;;;16.36;80.39
59877;BME280;45749;51.140;17.184;2023-09-07T06:22:16;101068.28;;;16.42;80.40
59877;BME280;45749;51.140;17.184;2023-09-07T06:24:41;101067.72;;;16.48;80.54
59877;BME280;45749;51.140;17.184;2023-09-07T06:27:06;101067.22;;;16.54;81.00
59877;BME280;45749;51.140;17.184;2023-09-07T06:29:32;101061.38;;;16.60;81.11
59877;BME280;45749;51.140;17.184;2023-09-07T06:31:57;101068.00;;;16.66;81.01
59877;BME280;45749;51.140;17.184;2023-09-07T06:34:23;101077.28;;;16.72;81.31
59877;BME280;45749;51.140;17.184;2023-09-07T06:36:48;101066.63;;;16.72;81.54
59877;BME280;45749;51.140;17.184;2023-09-07T06:39:14;101074.97;;;16.78;81.15
59877;BME280;45749;51.140;17.184;2023-09-07T06:41:39;101078.06;;;16.83;81.39
59877;BME280;45749;51.140;17.184;2023-09-07T06:44:04;101079.19;;;16.91;80.99
59877;BME280;45749;51.140;17.184;2023-09-07T06:46:30;101078.28;;;17.01;81.05
59877;BME280;45749;51.140;17.184;2023-09-07T06:48:55;101078.13;;;17.03;81.07
59877;BME280;45749;51.140;17.184;2023-09-07T06:51:20;101081.25;;;17.08;81.36
59877;BME280;45749;51.140;17.184;2023-09-07T06:53:45;101079.84;;;17.14;81.37
59877;BME280;45749;51.140;17.184;2023-09-07T06:56:11;101085.94;;;17.25;81.55
59877;BME280;45749;51.140;17.184;2023-09-07T06:58:36;101086.91;;;17.34;81.95
59877;BME280;45749;51.140;17.184;2023-09-07T07:01:01;101086.53;;;17.39;81.96
59877;BME280;45749;51.140;17.184;2023-09-07T07:03:28;101090.78;;;17.51;81.93
59877;BME280;45749;51.140;17.184;2023-09-07T07:05:54;101101.72;;;17.57;81.29
59877;BME280;45749;51.140;17.184;2023-09-07T07:08:20;101085.44;;;17.51;81.18
59877;BME280;45749;51.140;17.184;2023-09-07T07:10:45;101101.19;;;17.64;81.70
59877;BME280;45749;51.140;17.184;2023-09-07T07:13:10;101097.25;;;17.68;81.88
59877;BME280;45749;51.140;17.184;2023-09-07T07:15:36;101104.31;;;17.78;81.67
59877;BME280;45749;51.140;17.184;2023-09-07T07:18:01;101108.09;;;17.86;81.61
59877;BME280;45749;51.140;17.184;2023-09-07T07:20:33;101109.22;;;17.93;81.19
59877;BME280;45749;51.140;17.184;2023-09-07T07:22:58;101109.22;;;17.93;81.58
59877;BME280;45749;51.140;17.184;2023-09-07T07:25:24;101105.03;;;18.00;81.56
59877;BME280;45749;51.140;17.184;2023-09-07T07:27:49;101100.25;;;18.03;81.52
59877;BME280;45749;51.140;17.184;2023-09-07T07:30:14;101081.69;;;18.02;81.25
59877;BME280;45749;51.140;17.184;2023-09-07T07:32:40;101100.09;;;18.24;80.96
59877;BME280;45749;51.140;17.184;2023-09-07T07:35:05;101105.56;;;18.33;81.52
59877;BME280;45749;51.140;17.184;2023-09-07T07:37:31;101104.56;;;18.43;81.69
59877;BME280;45749;51.140;17.184;2023-09-07T07:39:57;101101.16;;;18.51;80.96
59877;BME280;45749;51.140;17.184;2023-09-07T07:42:22;101102.28;;;18.58;81.12
59877;BME280;45749;51.140;17.184;2023-09-07T07:44:48;101097.19;;;18.65;81.68
59877;BME280;45749;51.140;17.184;2023-09-07T07:47:13;101098.44;;;18.70;81.10
59877;BME280;45749;51.140;17.184;2023-09-07T07:49:38;101111.38;;;18.85;81.43
59877;BME280;45749;51.140;17.184;2023-09-07T07:52:04;101094.91;;;18.89;81.16
59877;BME280;45749;51.140;17.184;2023-09-07T07:54:29;101105.56;;;18.99;80.86
59877;BME280;45749;51.140;17.184;2023-09-07T07:56:54;101098.94;;;19.03;81.00
59877;BME280;45749;51.140;17.184;2023-09-07T07:59:20;101108.59;;;19.14;80.83
59877;BME280;45749;51.140;17.184;2023-09-07T08:01:45;101100.38;;;19.25;80.71
59877;BME280;45749;51.140;17.184;2023-09-07T08:04:10;101100.34;;;19.35;81.08
59877;BME280;45749;51.140;17.184;2023-09-07T08:06:36;101105.75;;;19.43;81.04
59877;BME280;45749;51.140;17.184;2023-09-07T08:09:02;101096.13;;;19.50;80.81
59877;BME280;45749;51.140;17.184;2023-09-07T08:11:27;101104.81;;;19.62;81.05
59877;BME280;45749;51.140;17.184;2023-09-07T08:13:53;101094.50;;;19.67;80.75
59877;BME280;45749;51.140;17.184;2023-09-07T08:16:18;101096.38;;;19.84;80.37
59877;BME280;45749;51.140;17.184;2023-09-07T08:18:43;101086.84;;;19.90;80.23
59877;BME280;45749;51.140;17.184;2023-09-07T08:21:09;101107.16;;;20.10;79.47
59877;BME280;45749;51.140;17.184;2023-09-07T08:23:34;101099.00;;;20.20;80.09
59877;BME280;45749;51.140;17.184;2023-09-07T08:26:00;101097.63;;;20.34;79.75
59877;BME280;45749;51.140;17.184;2023-09-07T08:28:25;101099.03;;;20.46;79.27
59877;BME280;45749;51.140;17.184;2023-09-07T08:30:51;101104.69;;;20.61;78.99
59877;BME280;45749;51.140;17.184;2023-09-07T08:33:19;101103.59;;;20.72;78.65
59877;BME280;45749;51.140;17.184;2023-09-07T08:35:44;101097.09;;;20.82;78.74
59877;BME280;45749;51.140;17.184;2023-09-07T08:38:12;101094.63;;;20.89;77.73
59877;BME280;45749;51.140;17.184;2023-09-07T08:40:38;101085.47;;;21.00;78.08
59877;BME280;45749;51.140;17.184;2023-09-07T08:43:08;101093.28;;;21.19;77.99
59877;BME280;45749;51.140;17.184;2023-09-07T08:45:42;101098.31;;;21.30;77.57
59877;BME280;45749;51.140;17.184;2023-09-07T08:48:10;101089.47;;;21.38;78.38
59877;BME280;45749;51.140;17.184;2023-09-07T08:50:37;101078.59;;;21.48;75.11
59877;BME280;45749;51.140;17.184;2023-09-07T08:53:03;101067.53;;;21.51;75.72
59877;BME280;45749;51.140;17.184;2023-09-07T08:55:29;101095.09;;;21.77;75.67
59877;BME280;45749;51.140;17.184;2023-09-07T08:57:55;101101.16;;;21.88;75.00
59877;BME280;45749;51.140;17.184;2023-09-07T09:00:21;101095.81;;;21.96;74.95
59877;BME280;45749;51.140;17.184;2023-09-07T09:02:46;101097.50;;;22.05;75.40
59877;BME280;45749;51.140;17.184;2023-09-07T09:05:14;101095.31;;;22.09;74.58
59877;BME280;45749;51.140;17.184;2023-09-07T09:07:40;101105.25;;;22.24;75.06
59877;BME280;45749;51.140;17.184;2023-09-07T09:10:06;101084.25;;;22.28;74.72
59877;BME280;45749;51.140;17.184;2023-09-07T09:12:31;101092.97;;;22.46;73.40
59877;BME280;45749;51.140;17.184;2023-09-07T09:14:58;101092.63;;;22.58;72.96
59877;BME280;45749;51.140;17.184;2023-09-07T09:17:24;101091.06;;;22.63;72.67
59877;BME280;45749;51.140;17.184;2023-09-07T09:19:50;101085.16;;;22.76;72.75
59877;BME280;45749;51.140;17.184;2023-09-07T09:22:15;101083.28;;;22.85;71.89
59877;BME280;45749;51.140;17.184;2023-09-07T09:24:40;101078.06;;;22.91;71.72
59877;BME280;45749;51.140;17.184;2023-09-07T09:27:06;101080.72;;;23.00;72.21
59877;BME280;45749;51.140;17.184;2023-09-07T09:29:34;101088.44;;;23.11;71.46
59877;BME280;45749;51.140;17.184;2023-09-07T09:32:03;101088.53;;;23.26;70.65
59877;BME280;45749;51.140;17.184;2023-09-07T09:34:32;101090.84;;;23.37;71.85
59877;BME280;45749;51.140;17.184;2023-09-07T09:36:57;101090.97;;;23.44;70.80
59877;BME280;45749;51.140;17.184;2023-09-07T09:39:24;101070.25;;;23.44;70.77
59877;BME280;45749;51.140;17.184;2023-09-07T09:41:49;101082.44;;;23.63;69.23
59877;BME280;45749;51.140;17.184;2023-09-07T09:44:16;101071.13;;;23.68;69.74
59877;BME280;45749;51.140;17.184;2023-09-07T09:46:42;101082.72;;;23.76;69.04
59877;BME280;45749;51.140;17.184;2023-09-07T09:49:08;101080.31;;;23.81;68.62
59877;BME280;45749;51.140;17.184;2023-09-07T09:51:36;101074.03;;;23.89;68.38
59877;BME280;45749;51.140;17.184;2023-09-07T09:54:02;101076.00;;;23.95;68.78
59877;BME280;45749;51.140;17.184;2023-09-07T09:56:28;101068.22;;;24.00;67.53
59877;BME280;45749;51.140;17.184;2023-09-07T09:58:54;101072.31;;;24.11;67.92
59877;BME280;45749;51.140;17.184;2023-09-07T10:01:19;101067.88;;;24.18;67.77
59877;BME280;45749;51.140;17.184;2023-09-07T10:03:46;101075.72;;;24.28;67.19
59877;BME280;45749;51.140;17.184;2023-09-07T10:06:19;101077.50;;;24.36;65.45
59877;BME280;45749;51.140;17.184;2023-09-07T10:08:59;101082.00;;;24.43;66.08
59877;BME280;45749;51.140;17.184;2023-09-07T10:11:36;101057.06;;;24.41;65.44
59877;BME280;45749;51.140;17.184;2023-09-07T10:14:06;101073.75;;;24.60;64.60
59877;BME280;45749;51.140;17.184;2023-09-07T10:16:45;101071.97;;;24.67;64.89
59877;BME280;45749;51.140;17.184;2023-09-07T10:19:20;101069.00;;;24.76;66.47
59877;BME280;45749;51.140;17.184;2023-09-07T10:21:46;101066.59;;;24.82;64.83
59877;BME280;45749;51.140;17.184;2023-09-07T10:24:23;101064.81;;;24.89;64.10
59877;BME280;45749;51.140;17.184;2023-09-07T10:27:05;101071.44;;;25.01;65.40
59877;BME280;45749;51.140;17.184;2023-09-07T10:29:45;101068.59;;;25.09;65.08
59877;BME280;45749;51.140;17.184;2023-09-07T10:32:11;101043.28;;;25.10;64.43
59877;BME280;45749;51.140;17.184;2023-09-07T10:34:39;101066.38;;;25.27;64.06
59877;BME280;45749;51.140;17.184;2023-09-07T10:37:07;101059.56;;;25.32;64.45
59877;BME280;45749;51.140;17.184;2023-09-07T10:39:35;101048.00;;;25.38;63.81
59877;BME280;45749;51.140;17.184;2023-09-07T10:42:00;101057.66;;;25.47;64.14
59877;BME280;45749;51.140;17.184;2023-09-07T10:44:26;101053.78;;;25.56;61.96
59877;BME280;45749;51.140;17.184;2023-09-07T10:46:52;101055.09;;;25.60;62.42
59877;BME280;45749;51.140;17.184;2023-09-07T10:49:18;101050.78;;;25.66;62.92
59877;BME280;45749;51.140;17.184;2023-09-07T10:51:46;101055.41;;;25.72;63.31
59877;BME280;45749;51.140;17.184;2023-09-07T10:54:24;101041.13;;;25.78;62.78
59877;BME280;45749;51.140;17.184;2023-09-07T10:56:50;101029.75;;;25.83;62.90
59877;BME280;45749;51.140;17.184;2023-09-07T10:59:16;101040.06;;;25.94;62.44
59877;BME280;45749;51.140;17.184;2023-09-07T11:01:44;101030.72;;;25.96;62.34
59877;BME280;45749;51.140;17.184;2023-09-07T11:04:09;101036.19;;;26.03;62.12
59877;BME280;45749;51.140;17.184;2023-09-07T11:06:36;101012.63;;;25.97;60.84
59877;BME280;45749;51.140;17.184;2023-09-07T11:09:02;101024.97;;;26.06;60.33
59877;BME280;45749;51.140;17.184;2023-09-07T11:11:31;101034.41;;;26.17;59.85
59877;BME280;45749;51.140;17.184;2023-09-07T11:13:58;101033.81;;;26.22;60.25
59877;BME280;45749;51.140;17.184;2023-09-07T11:16:25;101030.31;;;26.28;60.76
59877;BME280;45749;51.140;17.184;2023-09-07T11:18:51;101028.09;;;26.38;60.82
59877;BME280;45749;51.140;17.184;2023-09-07T11:21:17;101032.72;;;26.44;61.30
59877;BME280;45749;51.140;17.184;2023-09-07T11:23:44;101026.34;;;26.52;59.60
59877;BME280;45749;51.140;17.184;2023-09-07T11:26:10;101020.53;;;26.55;59.70
59877;BME280;45749;51.140;17.184;2023-09-07T11:28:35;101014.31;;;26.61;60.39
59877;BME280;45749;51.140;17.184;2023-09-07T11:31:01;101013.75;;;26.65;60.17
59877;BME280;45749;51.140;17.184;2023-09-07T11:33:26;101021.94;;;26.79;59.58
59877;BME280;45749;51.140;17.184;2023-09-07T11:35:52;101014.41;;;26.81;59.84
59877;BME280;45749;51.140;17.184;2023-09-07T11:38:20;101023.19;;;26.83;58.50
59877;BME280;45749;51.140;17.184;2023-09-07T11:40:45;101019.44;;;26.84;58.72
59877;BME280;45749;51.140;17.184;2023-09-07T11:43:12;101014.66;;;26.86;58.76
59877;BME280;45749;51.140;17.184;2023-09-07T11:45:39;101015.53;;;26.93;57.31
59877;BME280;45749;51.140;17.184;2023-09-07T11:48:05;101017.81;;;26.96;57.97
59877;BME280;45749;51.140;17.184;2023-09-07T11:50:30;101013.66;;;27.00;58.81
59877;BME280;45749;51.140;17.184;2023-09-07T11:52:56;101003.25;;;27.04;56.47
59877;BME280;45749;51.140;17.184;2023-09-07T11:55:21;101015.34;;;27.08;56.34
59877;BME280;45749;51.140;17.184;2023-09-07T11:57:47;101014.75;;;27.12;57.71
59877;BME280;45749;51.140;17.184;2023-09-07T12:00:12;101017.09;;;27.16;57.61
59877;BME280;45749;51.140;17.184;2023-09-07T12:02:40;101010.44;;;27.18;57.15
59877;BME280;45749;51.140;17.184;2023-09-07T12:05:06;100992.06;;;27.13;57.21
59877;BME280;45749;51.140;17.184;2023-09-07T12:07:38;101007.09;;;27.23;56.77
59877;BME280;45749;51.140;17.184;2023-09-07T12:10:04;100991.47;;;27.18;56.91
59877;BME280;45749;51.140;17.184;2023-09-07T12:12:29;101000.47;;;27.32;57.46
59877;BME280;45749;51.140;17.184;2023-09-07T12:14:55;100995.47;;;27.35;57.16
59877;BME280;45749;51.140;17.184;2023-09-07T12:17:22;101006.94;;;27.44;56.58
59877;BME280;45749;51.140;17.184;2023-09-07T12:19:47;101007.16;;;27.43;55.90
59877;BME280;45749;51.140;17.184;2023-09-07T12:22:12;101007.16;;;27.43;55.22
59877;BME280;45749;51.140;17.184;2023-09-07T12:24:38;101005.09;;;27.45;55.38
59877;BME280;45749;51.140;17.184;2023-09-07T12:27:03;101010.09;;;27.48;54.93
59877;BME280;45749;51.140;17.184;2023-09-07T12:29:29;101000.69;;;27.50;54.68
59877;BME280;45749;51.140;17.184;2023-09-07T12:31:54;100999.66;;;27.51;54.08
59877;BME280;45749;51.140;17.184;2023-09-07T12:34:20;100998.63;;;27.52;54.58